sensor_id;sensor_type;location;lat;lon;timestamp;P1;durP1;ratioP1;P2;durP2;ratioP2
74344;SDS011;62776;50.518;6.732;2023-05-16T00:02:16;7.85;;;7.05;;
74344;SDS011;62776;50.518;6.732;2023-05-16T00:05:04;10.73;;;7.07;;
74344;SDS011;62776;50.518;6.732;2023-05-16T00:07:53;8.65;;;7.75;;
74344;SDS011;62776;50.518;6.732;2023-05-16T00:10:40;7.65;;;6.80;;
74344;SDS011;62776;50.518;6.732;2023-05-16T00:13:27;6.85;;;6.15;;
74344;SDS011;62776;50.518;6.732;2023-05-16T00:16:16;9.73;;;6.53;;
74344;SDS011;62776;50.518;6.732;2023-05-16T00:19:02;9.38;;;6.93;;
74344;SDS011;62776;50.518;6.732;2023-05-16T00:21:48;11.07;;;7.10;;
74344;SDS011;62776;50.518;6.732;2023-05-16T00:24:35;8.80;;;5.72;;
74344;SDS011;62776;50.518;6.732;2023-05-16T00:27:21;8.40;;;6.32;;
74344;SDS011;62776;50.518;6.732;2023-05-16T00:30:07;6.85;;;6.15;;
74344;SDS011;62776;50.518;6.732;2023-05-16T00:32:57;6.82;;;6.05;;
74344;SDS011;62776;50.518;6.732;2023-05-16T00:35:44;8.32;;;6.82;;
74344;SDS011;62776;50.518;6.732;2023-05-16T00:38:30;10.43;;;7.80;;
74344;SDS011;62776;50.518;6.732;2023-05-16T00:41:17;7.95;;;5.93;;
74344;SDS011;62776;50.518;6.732;2023-05-16T00:44:04;7.40;;;6.68;;
74344;SDS011;62776;50.518;6.732;2023-05-16T00:46:52;7.05;;;6.35;;
74344;SDS011;62776;50.518;6.732;2023-05-16T00:49:38;6.30;;;5.70;;
74344;SDS011;62776;50.518;6.732;2023-05-16T00:52:26;7.82;;;6.68;;
74344;SDS011;62776;50.518;6.732;2023-05-16T00:58:07;6.93;;;6.13;;
74344;SDS011;62776;50.518;6.732;2023-05-16T01:00:55;6.90;;;5.93;;
74344;SDS011;62776;50.518;6.732;2023-05-16T01:03:42;6.22;;;5.07;;
74344;SDS011;62776;50.518;6.732;2023-05-16T01:06:31;6.07;;;5.22;;
74344;SDS011;62776;50.518;6.732;2023-05-16T01:09:18;7.13;;;5.70;;
74344;SDS011;62776;50.518;6.732;2023-05-16T01:15:15;6.57;;;5.90;;
74344;SDS011;62776;50.518;6.732;2023-05-16T01:18:16;6.93;;;5.68;;
74344;SDS011;62776;50.518;6.732;2023-05-16T01:27:19;7.22;;;6.53;;
74344;SDS011;62776;50.518;6.732;2023-05-16T01:30:15;5.28;;;4.78;;
74344;SDS011;62776;50.518;6.732;2023-05-16T01:33:02;5.68;;;5.10;;
74344;SDS011;62776;50.518;6.732;2023-05-16T01:36:02;5.32;;;4.82;;
74344;SDS011;62776;50.518;6.732;2023-05-16T01:39:06;7.70;;;4.97;;
74344;SDS011;62776;50.518;6.732;2023-05-16T01:42:14;5.93;;;5.03;;
74344;SDS011;62776;50.518;6.732;2023-05-16T01:45:14;4.53;;;3.72;;
74344;SDS011;62776;50.518;6.732;2023-05-16T01:48:19;6.47;;;4.88;;
74344;SDS011;62776;50.518;6.732;2023-05-16T01:51:13;3.28;;;3.08;;
74344;SDS011;62776;50.518;6.732;2023-05-16T01:54:04;5.75;;;3.65;;
74344;SDS011;62776;50.518;6.732;2023-05-16T01:56:55;3.15;;;2.90;;
74344;SDS011;62776;50.518;6.732;2023-05-16T01:59:41;3.17;;;2.88;;
74344;SDS011;62776;50.518;6.732;2023-05-16T02:02:29;4.13;;;2.53;;
74344;SDS011;62776;50.518;6.732;2023-05-16T02:05:16;3.67;;;3.10;;
74344;SDS011;62776;50.518;6.732;2023-05-16T02:08:02;4.15;;;3.78;;
74344;SDS011;62776;50.518;6.732;2023-05-16T02:10:49;4.45;;;3.70;;
74344;SDS011;62776;50.518;6.732;2023-05-16T02:13:36;4.60;;;3.97;;
74344;SDS011;62776;50.518;6.732;2023-05-16T02:16:22;4.28;;;2.80;;
74344;SDS011;62776;50.518;6.732;2023-05-16T02:19:11;3.55;;;3.25;;
74344;SDS011;62776;50.518;6.732;2023-05-16T02:21:57;8.93;;;4.30;;
74344;SDS011;62776;50.518;6.732;2023-05-16T02:24:46;8.70;;;4.80;;
74344;SDS011;62776;50.518;6.732;2023-05-16T02:27:38;8.98;;;4.57;;
74344;SDS011;62776;50.518;6.732;2023-05-16T02:30:25;8.43;;;4.63;;
74344;SDS011;62776;50.518;6.732;2023-05-16T02:33:12;7.70;;;4.25;;
74344;SDS011;62776;50.518;6.732;2023-05-16T02:36:10;6.82;;;5.15;;
74344;SDS011;62776;50.518;6.732;2023-05-16T02:38:58;5.40;;;4.65;;
74344;SDS011;62776;50.518;6.732;2023-05-16T02:41:45;6.45;;;5.28;;
74344;SDS011;62776;50.518;6.732;2023-05-16T02:44:32;8.23;;;5.97;;
74344;SDS011;62776;50.518;6.732;2023-05-16T02:47:18;8.80;;;5.70;;
74344;SDS011;62776;50.518;6.732;2023-05-16T02:50:06;13.27;;;5.78;;
74344;SDS011;62776;50.518;6.732;2023-05-16T02:52:54;5.18;;;4.68;;
74344;SDS011;62776;50.518;6.732;2023-05-16T02:55:40;7.05;;;5.18;;
74344;SDS011;62776;50.518;6.732;2023-05-16T02:58:28;8.80;;;5.93;;
74344;SDS011;62776;50.518;6.732;2023-05-16T03:01:15;11.38;;;6.72;;
74344;SDS011;62776;50.518;6.732;2023-05-16T03:04:02;14.98;;;6.93;;
74344;SDS011;62776;50.518;6.732;2023-05-16T03:06:51;12.25;;;6.60;;
74344;SDS011;62776;50.518;6.732;2023-05-16T03:09:37;16.25;;;6.93;;
74344;SDS011;62776;50.518;6.732;2023-05-16T03:12:30;9.20;;;5.10;;
74344;SDS011;62776;50.518;6.732;2023-05-16T03:15:17;10.70;;;6.38;;
74344;SDS011;62776;50.518;6.732;2023-05-16T03:18:04;13.85;;;7.40;;
74344;SDS011;62776;50.518;6.732;2023-05-16T03:20:56;11.05;;;6.68;;
74344;SDS011;62776;50.518;6.732;2023-05-16T03:23:43;16.13;;;7.88;;
74344;SDS011;62776;50.518;6.732;2023-05-16T03:26:36;5.95;;;4.32;;
74344;SDS011;62776;50.518;6.732;2023-05-16T03:29:30;14.32;;;7.70;;
74344;SDS011;62776;50.518;6.732;2023-05-16T03:32:19;17.02;;;8.00;;
74344;SDS011;62776;50.518;6.732;2023-05-16T03:35:07;15.07;;;7.28;;
74344;SDS011;62776;50.518;6.732;2023-05-16T03:37:59;15.73;;;8.10;;
74344;SDS011;62776;50.518;6.732;2023-05-16T03:40:47;14.60;;;7.55;;
74344;SDS011;62776;50.518;6.732;2023-05-16T03:43:46;17.45;;;9.55;;
74344;SDS011;62776;50.518;6.732;2023-05-16T03:46:34;15.00;;;9.10;;
74344;SDS011;62776;50.518;6.732;2023-05-16T03:49:22;14.90;;;8.95;;
74344;SDS011;62776;50.518;6.732;2023-05-16T03:52:09;15.52;;;9.30;;
74344;SDS011;62776;50.518;6.732;2023-05-16T03:54:55;13.73;;;9.13;;
74344;SDS011;62776;50.518;6.732;2023-05-16T03:57:42;21.63;;;12.73;;
74344;SDS011;62776;50.518;6.732;2023-05-16T04:00:30;20.80;;;11.65;;
74344;SDS011;62776;50.518;6.732;2023-05-16T04:03:19;16.42;;;10.55;;
74344;SDS011;62776;50.518;6.732;2023-05-16T04:08:59;19.85;;;10.10;;
74344;SDS011;62776;50.518;6.732;2023-05-16T04:11:45;23.58;;;13.00;;
74344;SDS011;62776;50.518;6.732;2023-05-16T04:14:34;27.10;;;14.32;;
74344;SDS011;62776;50.518;6.732;2023-05-16T04:17:22;21.55;;;10.88;;
74344;SDS011;62776;50.518;6.732;2023-05-16T04:20:20;24.52;;;11.98;;
74344;SDS011;62776;50.518;6.732;2023-05-16T04:23:06;21.88;;;14.20;;
74344;SDS011;62776;50.518;6.732;2023-05-16T04:25:55;36.20;;;13.75;;
74344;SDS011;62776;50.518;6.732;2023-05-16T04:28:44;21.55;;;10.80;;
74344;SDS011;62776;50.518;6.732;2023-05-16T04:31:31;23.67;;;11.82;;
74344;SDS011;62776;50.518;6.732;2023-05-16T04:34:24;24.15;;;12.90;;
74344;SDS011;62776;50.518;6.732;2023-05-16T04:37:13;27.75;;;13.63;;
74344;SDS011;62776;50.518;6.732;2023-05-16T04:40:00;19.27;;;10.40;;
74344;SDS011;62776;50.518;6.732;2023-05-16T04:42:53;32.88;;;13.35;;
74344;SDS011;62776;50.518;6.732;2023-05-16T04:45:52;22.15;;;11.60;;
74344;SDS011;62776;50.518;6.732;2023-05-16T04:48:40;30.48;;;13.73;;
74344;SDS011;62776;50.518;6.732;2023-05-16T04:51:26;28.35;;;13.73;;
74344;SDS011;62776;50.518;6.732;2023-05-16T04:54:12;21.48;;;9.82;;
74344;SDS011;62776;50.518;6.732;2023-05-16T04:57:02;28.13;;;12.70;;
74344;SDS011;62776;50.518;6.732;2023-05-16T04:59:55;32.30;;;12.95;;
74344;SDS011;62776;50.518;6.732;2023-05-16T05:02:42;21.80;;;10.77;;
74344;SDS011;62776;50.518;6.732;2023-05-16T05:05:29;30.25;;;13.55;;
74344;SDS011;62776;50.518;6.732;2023-05-16T05:08:20;23.13;;;9.57;;
74344;SDS011;62776;50.518;6.732;2023-05-16T05:11:15;26.30;;;10.15;;
74344;SDS011;62776;50.518;6.732;2023-05-16T05:14:03;27.52;;;8.98;;
74344;SDS011;62776;50.518;6.732;2023-05-16T05:16:51;18.92;;;7.80;;
74344;SDS011;62776;50.518;6.732;2023-05-16T05:19:37;24.90;;;9.60;;
74344;SDS011;62776;50.518;6.732;2023-05-16T05:22:23;17.63;;;8.23;;
74344;SDS011;62776;50.518;6.732;2023-05-16T05:25:11;20.98;;;8.05;;
74344;SDS011;62776;50.518;6.732;2023-05-16T05:28:04;31.60;;;12.25;;
74344;SDS011;62776;50.518;6.732;2023-05-16T05:33:44;20.25;;;8.63;;
74344;SDS011;62776;50.518;6.732;2023-05-16T05:36:30;23.20;;;8.07;;
74344;SDS011;62776;50.518;6.732;2023-05-16T05:39:19;16.73;;;8.02;;
74344;SDS011;62776;50.518;6.732;2023-05-16T05:42:08;13.75;;;6.65;;
74344;SDS011;62776;50.518;6.732;2023-05-16T05:44:54;18.40;;;7.72;;
74344;SDS011;62776;50.518;6.732;2023-05-16T05:47:42;16.27;;;7.28;;
74344;SDS011;62776;50.518;6.732;2023-05-16T05:50:30;24.45;;;10.23;;
74344;SDS011;62776;50.518;6.732;2023-05-16T05:53:19;23.40;;;10.35;;
74344;SDS011;62776;50.518;6.732;2023-05-16T05:56:06;20.45;;;10.25;;
74344;SDS011;62776;50.518;6.732;2023-05-16T05:58:59;17.73;;;9.10;;
74344;SDS011;62776;50.518;6.732;2023-05-16T06:01:45;22.27;;;10.35;;
74344;SDS011;62776;50.518;6.732;2023-05-16T06:04:31;18.00;;;9.63;;
74344;SDS011;62776;50.518;6.732;2023-05-16T06:07:18;19.23;;;9.07;;
74344;SDS011;62776;50.518;6.732;2023-05-16T06:10:05;19.00;;;9.88;;
74344;SDS011;62776;50.518;6.732;2023-05-16T06:12:53;17.48;;;9.25;;
74344;SDS011;62776;50.518;6.732;2023-05-16T06:15:40;19.23;;;8.80;;
74344;SDS011;62776;50.518;6.732;2023-05-16T06:18:26;14.48;;;7.88;;
74344;SDS011;62776;50.518;6.732;2023-05-16T06:21:19;14.43;;;7.72;;
74344;SDS011;62776;50.518;6.732;2023-05-16T06:24:08;14.80;;;7.03;;
74344;SDS011;62776;50.518;6.732;2023-05-16T06:26:58;12.35;;;7.13;;
74344;SDS011;62776;50.518;6.732;2023-05-16T06:29:44;14.98;;;7.60;;
74344;SDS011;62776;50.518;6.732;2023-05-16T06:32:31;12.23;;;6.70;;
74344;SDS011;62776;50.518;6.732;2023-05-16T06:35:18;11.77;;;6.90;;
74344;SDS011;62776;50.518;6.732;2023-05-16T06:38:05;11.73;;;6.38;;
74344;SDS011;62776;50.518;6.732;2023-05-16T06:40:58;18.60;;;7.15;;
74344;SDS011;62776;50.518;6.732;2023-05-16T06:44:02;11.18;;;6.45;;
74344;SDS011;62776;50.518;6.732;2023-05-16T06:46:49;13.38;;;6.28;;
74344;SDS011;62776;50.518;6.732;2023-05-16T06:49:35;7.82;;;5.18;;
74344;SDS011;62776;50.518;6.732;2023-05-16T06:52:23;11.98;;;5.57;;
74344;SDS011;62776;50.518;6.732;2023-05-16T06:55:09;6.28;;;4.43;;
74344;SDS011;62776;50.518;6.732;2023-05-16T06:57:56;10.45;;;5.40;;
74344;SDS011;62776;50.518;6.732;2023-05-16T07:00:42;15.75;;;5.53;;
74344;SDS011;62776;50.518;6.732;2023-05-16T07:03:38;9.45;;;4.03;;
74344;SDS011;62776;50.518;6.732;2023-05-16T07:06:24;5.90;;;3.55;;
74344;SDS011;62776;50.518;6.732;2023-05-16T07:09:12;9.02;;;3.67;;
74344;SDS011;62776;50.518;6.732;2023-05-16T07:11:59;6.05;;;3.75;;
74344;SDS011;62776;50.518;6.732;2023-05-16T07:14:45;10.45;;;4.95;;
74344;SDS011;62776;50.518;6.732;2023-05-16T07:17:31;5.43;;;3.13;;
74344;SDS011;62776;50.518;6.732;2023-05-16T07:20:24;11.73;;;4.72;;
74344;SDS011;62776;50.518;6.732;2023-05-16T07:23:11;4.97;;;3.03;;
74344;SDS011;62776;50.518;6.732;2023-05-16T07:25:57;9.00;;;2.97;;
74344;SDS011;62776;50.518;6.732;2023-05-16T07:28:44;5.07;;;3.10;;
74344;SDS011;62776;50.518;6.732;2023-05-16T07:31:30;7.40;;;2.97;;
74344;SDS011;62776;50.518;6.732;2023-05-16T07:34:32;8.85;;;4.10;;
74344;SDS011;62776;50.518;6.732;2023-05-16T07:37:20;5.20;;;2.70;;
74344;SDS011;62776;50.518;6.732;2023-05-16T07:40:15;8.93;;;3.50;;
74344;SDS011;62776;50.518;6.732;2023-05-16T07:43:02;8.32;;;4.15;;
74344;SDS011;62776;50.518;6.732;2023-05-16T07:45:51;6.97;;;4.00;;
74344;SDS011;62776;50.518;6.732;2023-05-16T07:48:38;10.38;;;4.72;;
74344;SDS011;62776;50.518;6.732;2023-05-16T07:51:25;10.60;;;3.65;;
74344;SDS011;62776;50.518;6.732;2023-05-16T07:54:18;5.50;;;3.50;;
74344;SDS011;62776;50.518;6.732;2023-05-16T07:57:05;6.35;;;3.25;;
74344;SDS011;62776;50.518;6.732;2023-05-16T07:59:57;5.85;;;3.08;;
74344;SDS011;62776;50.518;6.732;2023-05-16T08:02:44;7.80;;;3.20;;
74344;SDS011;62776;50.518;6.732;2023-05-16T08:05:33;8.93;;;2.78;;
74344;SDS011;62776;50.518;6.732;2023-05-16T08:08:20;5.38;;;2.95;;
74344;SDS011;62776;50.518;6.732;2023-05-16T08:11:08;4.47;;;2.47;;
74344;SDS011;62776;50.518;6.732;2023-05-16T08:13:58;6.57;;;2.42;;
74344;SDS011;62776;50.518;6.732;2023-05-16T08:16:44;4.75;;;2.92;;
74344;SDS011;62776;50.518;6.732;2023-05-16T08:19:31;5.00;;;2.83;;
74344;SDS011;62776;50.518;6.732;2023-05-16T08:22:18;3.88;;;2.45;;
74344;SDS011;62776;50.518;6.732;2023-05-16T08:25:07;5.60;;;2.67;;
74344;SDS011;62776;50.518;6.732;2023-05-16T08:27:53;7.43;;;3.65;;
74344;SDS011;62776;50.518;6.732;2023-05-16T08:30:41;5.50;;;2.80;;
74344;SDS011;62776;50.518;6.732;2023-05-16T08:33:27;5.70;;;2.85;;
74344;SDS011;62776;50.518;6.732;2023-05-16T08:36:15;7.82;;;2.75;;
74344;SDS011;62776;50.518;6.732;2023-05-16T08:39:04;7.40;;;3.03;;
74344;SDS011;62776;50.518;6.732;2023-05-16T08:42:04;6.53;;;2.90;;
74344;SDS011;62776;50.518;6.732;2023-05-16T08:44:51;6.45;;;2.40;;
74344;SDS011;62776;50.518;6.732;2023-05-16T08:47:38;5.57;;;3.00;;
74344;SDS011;62776;50.518;6.732;2023-05-16T08:50:30;6.03;;;3.15;;
74344;SDS011;62776;50.518;6.732;2023-05-16T08:53:20;4.88;;;2.35;;
74344;SDS011;62776;50.518;6.732;2023-05-16T08:56:17;8.30;;;2.30;;
74344;SDS011;62776;50.518;6.732;2023-05-16T08:59:04;4.82;;;2.15;;
74344;SDS011;62776;50.518;6.732;2023-05-16T09:02:00;5.60;;;1.92;;
74344;SDS011;62776;50.518;6.732;2023-05-16T09:04:55;5.15;;;2.10;;
74344;SDS011;62776;50.518;6.732;2023-05-16T09:07:43;5.38;;;2.13;;
74344;SDS011;62776;50.518;6.732;2023-05-16T09:10:32;4.30;;;2.20;;
74344;SDS011;62776;50.518;6.732;2023-05-16T09:13:19;7.57;;;2.20;;
74344;SDS011;62776;50.518;6.732;2023-05-16T09:16:08;4.05;;;2.08;;
74344;SDS011;62776;50.518;6.732;2023-05-16T09:18:59;3.53;;;1.80;;
74344;SDS011;62776;50.518;6.732;2023-05-16T09:21:48;10.18;;;2.75;;
74344;SDS011;62776;50.518;6.732;2023-05-16T09:24:37;5.55;;;1.83;;
74344;SDS011;62776;50.518;6.732;2023-05-16T09:27:30;4.90;;;2.35;;
74344;SDS011;62776;50.518;6.732;2023-05-16T09:30:17;4.30;;;2.22;;
74344;SDS011;62776;50.518;6.732;2023-05-16T09:33:14;5.03;;;2.10;;
74344;SDS011;62776;50.518;6.732;2023-05-16T09:36:14;7.25;;;2.50;;
74344;SDS011;62776;50.518;6.732;2023-05-16T09:39:01;7.50;;;2.22;;
74344;SDS011;62776;50.518;6.732;2023-05-16T09:44:40;3.25;;;1.70;;
74344;SDS011;62776;50.518;6.732;2023-05-16T09:47:33;4.20;;;2.22;;
74344;SDS011;62776;50.518;6.732;2023-05-16T09:50:25;4.82;;;2.22;;
74344;SDS011;62776;50.518;6.732;2023-05-16T09:53:12;4.13;;;1.98;;
74344;SDS011;62776;50.518;6.732;2023-05-16T09:55:59;3.72;;;1.73;;
74344;SDS011;62776;50.518;6.732;2023-05-16T09:58:47;4.97;;;2.30;;
74344;SDS011;62776;50.518;6.732;2023-05-16T10:01:36;4.68;;;1.80;;
74344;SDS011;62776;50.518;6.732;2023-05-16T10:04:32;4.10;;;1.80;;
74344;SDS011;62776;50.518;6.732;2023-05-16T10:07:19;6.57;;;2.10;;
74344;SDS011;62776;50.518;6.732;2023-05-16T10:10:09;5.38;;;2.20;;
74344;SDS011;62776;50.518;6.732;2023-05-16T10:12:57;4.95;;;2.08;;
74344;SDS011;62776;50.518;6.732;2023-05-16T10:15:49;4.18;;;2.28;;
74344;SDS011;62776;50.518;6.732;2023-05-16T10:18:39;5.75;;;1.92;;
74344;SDS011;62776;50.518;6.732;2023-05-16T10:21:32;5.35;;;1.95;;
74344;SDS011;62776;50.518;6.732;2023-05-16T10:24:25;3.20;;;1.55;;
74344;SDS011;62776;50.518;6.732;2023-05-16T10:27:19;4.00;;;1.63;;
74344;SDS011;62776;50.518;6.732;2023-05-16T10:30:13;4.70;;;1.85;;
74344;SDS011;62776;50.518;6.732;2023-05-16T10:33:01;4.47;;;1.70;;
74344;SDS011;62776;50.518;6.732;2023-05-16T10:35:55;2.10;;;1.30;;
74344;SDS011;62776;50.518;6.732;2023-05-16T10:38:48;4.22;;;1.65;;
74344;SDS011;62776;50.518;6.732;2023-05-16T10:41:36;4.15;;;1.77;;
74344;SDS011;62776;50.518;6.732;2023-05-16T10:44:24;3.90;;;1.92;;
74344;SDS011;62776;50.518;6.732;2023-05-16T10:47:17;2.17;;;1.50;;
74344;SDS011;62776;50.518;6.732;2023-05-16T10:50:04;4.25;;;1.52;;
74344;SDS011;62776;50.518;6.732;2023-05-16T10:52:52;4.22;;;1.40;;
74344;SDS011;62776;50.518;6.732;2023-05-16T10:55:38;8.20;;;1.77;;
74344;SDS011;62776;50.518;6.732;2023-05-16T11:01:26;3.00;;;1.67;;
74344;SDS011;62776;50.518;6.732;2023-05-16T11:04:19;3.33;;;1.80;;
74344;SDS011;62776;50.518;6.732;2023-05-16T11:07:05;4.65;;;1.45;;
74344;SDS011;62776;50.518;6.732;2023-05-16T11:13:06;2.08;;;1.08;;
74344;SDS011;62776;50.518;6.732;2023-05-16T11:15:52;3.78;;;1.50;;
74344;SDS011;62776;50.518;6.732;2023-05-16T11:22:32;4.43;;;1.70;;
74344;SDS011;62776;50.518;6.732;2023-05-16T11:25:34;3.60;;;1.95;;
74344;SDS011;62776;50.518;6.732;2023-05-16T11:28:25;1.50;;;1.20;;
74344;SDS011;62776;50.518;6.732;2023-05-16T11:31:12;3.22;;;1.50;;
74344;SDS011;62776;50.518;6.732;2023-05-16T11:33:59;5.72;;;1.70;;
74344;SDS011;62776;50.518;6.732;2023-05-16T11:36:46;4.18;;;1.48;;
74344;SDS011;62776;50.518;6.732;2023-05-16T11:39:34;14.38;;;1.92;;
74344;SDS011;62776;50.518;6.732;2023-05-16T11:42:21;2.47;;;1.33;;
74344;SDS011;62776;50.518;6.732;2023-05-16T11:45:09;2.78;;;1.42;;
74344;SDS011;62776;50.518;6.732;2023-05-16T11:48:00;4.18;;;1.77;;
74344;SDS011;62776;50.518;6.732;2023-05-16T11:53:40;2.97;;;1.60;;
74344;SDS011;62776;50.518;6.732;2023-05-16T11:56:36;1.98;;;1.42;;
74344;SDS011;62776;50.518;6.732;2023-05-16T11:59:24;3.28;;;1.40;;
74344;SDS011;62776;50.518;6.732;2023-05-16T12:02:12;3.38;;;1.50;;
74344;SDS011;62776;50.518;6.732;2023-05-16T12:04:59;5.18;;;1.42;;
74344;SDS011;62776;50.518;6.732;2023-05-16T12:07:54;3.08;;;1.42;;
74344;SDS011;62776;50.518;6.732;2023-05-16T12:10:41;2.55;;;1.33;;
74344;SDS011;62776;50.518;6.732;2023-05-16T12:13:34;1.85;;;1.25;;
74344;SDS011;62776;50.518;6.732;2023-05-16T12:16:27;3.75;;;1.65;;
74344;SDS011;62776;50.518;6.732;2023-05-16T12:19:13;3.83;;;1.20;;
74344;SDS011;62776;50.518;6.732;2023-05-16T12:22:00;2.55;;;1.10;;
74344;SDS011;62776;50.518;6.732;2023-05-16T12:24:47;3.97;;;1.20;;
74344;SDS011;62776;50.518;6.732;2023-05-16T12:27:48;2.97;;;1.70;;
74344;SDS011;62776;50.518;6.732;2023-05-16T12:30:38;2.22;;;1.30;;
74344;SDS011;62776;50.518;6.732;2023-05-16T12:33:26;2.58;;;1.10;;
74344;SDS011;62776;50.518;6.732;2023-05-16T12:36:13;6.82;;;1.83;;
74344;SDS011;62776;50.518;6.732;2023-05-16T12:39:01;3.78;;;1.52;;
74344;SDS011;62776;50.518;6.732;2023-05-16T12:41:48;3.40;;;1.40;;
74344;SDS011;62776;50.518;6.732;2023-05-16T12:44:35;2.78;;;1.40;;
74344;SDS011;62776;50.518;6.732;2023-05-16T12:47:22;2.80;;;1.10;;
74344;SDS011;62776;50.518;6.732;2023-05-16T12:50:18;2.97;;;1.30;;
74344;SDS011;62776;50.518;6.732;2023-05-16T12:53:09;4.28;;;1.60;;
74344;SDS011;62776;50.518;6.732;2023-05-16T12:56:10;2.42;;;1.38;;
74344;SDS011;62776;50.518;6.732;2023-05-16T12:58:57;4.25;;;1.20;;
74344;SDS011;62776;50.518;6.732;2023-05-16T13:01:44;5.30;;;1.63;;
74344;SDS011;62776;50.518;6.732;2023-05-16T13:04:31;3.08;;;1.00;;
74344;SDS011;62776;50.518;6.732;2023-05-16T13:07:17;1.75;;;0.73;;
74344;SDS011;62776;50.518;6.732;2023-05-16T13:10:03;3.53;;;0.90;;
74344;SDS011;62776;50.518;6.732;2023-05-16T13:12:50;7.25;;;1.75;;
74344;SDS011;62776;50.518;6.732;2023-05-16T13:15:37;1.73;;;1.13;;
74344;SDS011;62776;50.518;6.732;2023-05-16T13:18:24;2.17;;;1.10;;
74344;SDS011;62776;50.518;6.732;2023-05-16T13:21:10;3.00;;;1.30;;
74344;SDS011;62776;50.518;6.732;2023-05-16T13:24:05;3.05;;;1.27;;
74344;SDS011;62776;50.518;6.732;2023-05-16T13:26:52;2.53;;;1.60;;
74344;SDS011;62776;50.518;6.732;2023-05-16T13:29:38;6.15;;;1.70;;
74344;SDS011;62776;50.518;6.732;2023-05-16T13:32:27;5.63;;;1.63;;
74344;SDS011;62776;50.518;6.732;2023-05-16T13:35:13;3.85;;;1.30;;
74344;SDS011;62776;50.518;6.732;2023-05-16T13:38:00;2.88;;;1.38;;
74344;SDS011;62776;50.518;6.732;2023-05-16T13:40:46;2.65;;;1.33;;
74344;SDS011;62776;50.518;6.732;2023-05-16T13:43:35;3.28;;;1.38;;
74344;SDS011;62776;50.518;6.732;2023-05-16T13:46:22;3.47;;;1.35;;
74344;SDS011;62776;50.518;6.732;2023-05-16T13:49:08;3.65;;;1.67;;
74344;SDS011;62776;50.518;6.732;2023-05-16T13:51:56;3.67;;;1.58;;
74344;SDS011;62776;50.518;6.732;2023-05-16T13:54:42;3.35;;;1.33;;
74344;SDS011;62776;50.518;6.732;2023-05-16T13:57:29;5.05;;;2.08;;
74344;SDS011;62776;50.518;6.732;2023-05-16T14:00:19;3.90;;;1.50;;
74344;SDS011;62776;50.518;6.732;2023-05-16T14:03:07;5.43;;;1.95;;
74344;SDS011;62776;50.518;6.732;2023-05-16T14:05:53;2.95;;;1.38;;
74344;SDS011;62776;50.518;6.732;2023-05-16T14:08:39;1.80;;;1.10;;
74344;SDS011;62776;50.518;6.732;2023-05-16T14:11:29;3.65;;;1.88;;
74344;SDS011;62776;50.518;6.732;2023-05-16T14:14:15;3.38;;;1.25;;
74344;SDS011;62776;50.518;6.732;2023-05-16T14:17:03;3.47;;;1.33;;
74344;SDS011;62776;50.518;6.732;2023-05-16T14:19:51;2.47;;;1.42;;
74344;SDS011;62776;50.518;6.732;2023-05-16T14:22:40;3.47;;;1.45;;
74344;SDS011;62776;50.518;6.732;2023-05-16T14:25:27;2.72;;;1.38;;
74344;SDS011;62776;50.518;6.732;2023-05-16T14:28:14;2.95;;;1.75;;
74344;SDS011;62776;50.518;6.732;2023-05-16T14:31:01;5.55;;;1.33;;
74344;SDS011;62776;50.518;6.732;2023-05-16T14:33:54;3.55;;;1.27;;
74344;SDS011;62776;50.518;6.732;2023-05-16T14:36:40;3.38;;;1.55;;
74344;SDS011;62776;50.518;6.732;2023-05-16T14:39:27;3.13;;;1.30;;
74344;SDS011;62776;50.518;6.732;2023-05-16T14:42:14;2.25;;;0.90;;
74344;SDS011;62776;50.518;6.732;2023-05-16T14:45:02;3.50;;;2.28;;
74344;SDS011;62776;50.518;6.732;2023-05-16T14:47:48;3.83;;;1.52;;
74344;SDS011;62776;50.518;6.732;2023-05-16T14:50:34;2.28;;;1.20;;
74344;SDS011;62776;50.518;6.732;2023-05-16T14:53:21;2.75;;;1.50;;
74344;SDS011;62776;50.518;6.732;2023-05-16T14:56:14;2.88;;;1.30;;
74344;SDS011;62776;50.518;6.732;2023-05-16T14:59:00;2.90;;;1.33;;
74344;SDS011;62776;50.518;6.732;2023-05-16T15:01:48;2.53;;;1.00;;
74344;SDS011;62776;50.518;6.732;2023-05-16T15:04:35;2.13;;;1.10;;
74344;SDS011;62776;50.518;6.732;2023-05-16T15:07:21;2.90;;;1.20;;
74344;SDS011;62776;50.518;6.732;2023-05-16T15:10:07;1.70;;;0.90;;
74344;SDS011;62776;50.518;6.732;2023-05-16T15:12:54;3.35;;;1.05;;
74344;SDS011;62776;50.518;6.732;2023-05-16T15:15:40;3.95;;;1.23;;
74344;SDS011;62776;50.518;6.732;2023-05-16T15:18:26;1.88;;;1.30;;
74344;SDS011;62776;50.518;6.732;2023-05-16T15:21:15;1.90;;;0.82;;
74344;SDS011;62776;50.518;6.732;2023-05-16T15:24:01;4.07;;;1.08;;
74344;SDS011;62776;50.518;6.732;2023-05-16T15:26:48;2.83;;;1.38;;
74344;SDS011;62776;50.518;6.732;2023-05-16T15:29:36;2.25;;;0.82;;
74344;SDS011;62776;50.518;6.732;2023-05-16T15:32:25;2.55;;;1.25;;
74344;SDS011;62776;50.518;6.732;2023-05-16T15:35:16;3.05;;;1.30;;
74344;SDS011;62776;50.518;6.732;2023-05-16T15:38:02;1.83;;;1.10;;
74344;SDS011;62776;50.518;6.732;2023-05-16T15:40:56;2.58;;;1.38;;
74344;SDS011;62776;50.518;6.732;2023-05-16T15:43:42;1.23;;;1.00;;
74344;SDS011;62776;50.518;6.732;2023-05-16T15:46:30;1.65;;;1.10;;
74344;SDS011;62776;50.518;6.732;2023-05-16T15:49:16;1.65;;;1.05;;
74344;SDS011;62776;50.518;6.732;2023-05-16T15:52:04;3.50;;;1.30;;
74344;SDS011;62776;50.518;6.732;2023-05-16T15:54:51;3.35;;;1.15;;
74344;SDS011;62776;50.518;6.732;2023-05-16T15:57:37;1.75;;;1.27;;
74344;SDS011;62776;50.518;6.732;2023-05-16T16:00:26;3.10;;;1.65;;
74344;SDS011;62776;50.518;6.732;2023-05-16T16:03:12;3.70;;;1.00;;
74344;SDS011;62776;50.518;6.732;2023-05-16T16:05:59;2.83;;;1.40;;
74344;SDS011;62776;50.518;6.732;2023-05-16T16:08:59;3.45;;;1.70;;
74344;SDS011;62776;50.518;6.732;2023-05-16T16:11:46;3.10;;;1.25;;
74344;SDS011;62776;50.518;6.732;2023-05-16T16:14:34;3.22;;;1.52;;
74344;SDS011;62776;50.518;6.732;2023-05-16T16:17:20;2.38;;;1.15;;
74344;SDS011;62776;50.518;6.732;2023-05-16T16:20:06;6.35;;;1.67;;
74344;SDS011;62776;50.518;6.732;2023-05-16T16:22:53;1.63;;;1.30;;
74344;SDS011;62776;50.518;6.732;2023-05-16T16:25:42;2.55;;;1.17;;
74344;SDS011;62776;50.518;6.732;2023-05-16T16:28:28;4.53;;;1.30;;
74344;SDS011;62776;50.518;6.732;2023-05-16T16:31:16;3.90;;;1.10;;
74344;SDS011;62776;50.518;6.732;2023-05-16T16:34:02;2.10;;;1.20;;
74344;SDS011;62776;50.518;6.732;2023-05-16T16:36:55;2.03;;;0.93;;
74344;SDS011;62776;50.518;6.732;2023-05-16T16:39:41;4.70;;;1.92;;
74344;SDS011;62776;50.518;6.732;2023-05-16T16:42:29;4.35;;;1.60;;
74344;SDS011;62776;50.518;6.732;2023-05-16T16:45:21;2.80;;;1.52;;
74344;SDS011;62776;50.518;6.732;2023-05-16T16:48:09;2.38;;;1.45;;
74344;SDS011;62776;50.518;6.732;2023-05-16T16:50:55;2.60;;;1.30;;
74344;SDS011;62776;50.518;6.732;2023-05-16T16:53:45;2.75;;;1.60;;
74344;SDS011;62776;50.518;6.732;2023-05-16T16:56:38;2.28;;;1.60;;
74344;SDS011;62776;50.518;6.732;2023-05-16T16:59:27;4.78;;;1.50;;
74344;SDS011;62776;50.518;6.732;2023-05-16T17:02:20;4.95;;;1.65;;
74344;SDS011;62776;50.518;6.732;2023-05-16T17:05:06;2.58;;;2.10;;
74344;SDS011;62776;50.518;6.732;2023-05-16T17:07:54;6.13;;;1.90;;
74344;SDS011;62776;50.518;6.732;2023-05-16T17:10:40;2.25;;;1.52;;
74344;SDS011;62776;50.518;6.732;2023-05-16T17:13:27;3.63;;;1.65;;
74344;SDS011;62776;50.518;6.732;2023-05-16T17:16:17;2.92;;;1.55;;
74344;SDS011;62776;50.518;6.732;2023-05-16T17:19:04;2.63;;;1.20;;
74344;SDS011;62776;50.518;6.732;2023-05-16T17:21:50;3.63;;;1.50;;
74344;SDS011;62776;50.518;6.732;2023-05-16T17:24:40;2.55;;;1.40;;
74344;SDS011;62776;50.518;6.732;2023-05-16T17:27:29;4.88;;;1.67;;